TimeEDT,TemperatureF,Dew PointF,Humidity,Sea Level PressureIn,VisibilityMPH,Wind Direction,Wind SpeedMPH,Gust SpeedMPH,PrecipitationIn,Events,Conditions,WindDirDegrees,DateUTC
12:53 AM,52.0,48.0,86,30.16,10.0,Calm,Calm,-,N/A,,Clear,0,2013-09-07 04:53:00
1:53 AM,52.0,48.0,86,30.15,10.0,Calm,Calm,-,N/A,,Clear,0,2013-09-07 05:53:00
2:53 AM,50.0,48.0,93,30.14,10.0,Calm,Calm,-,N/A,,Clear,0,2013-09-07 06:53:00
3:53 AM,50.0,46.9,89,30.14,10.0,Calm,Calm,-,N/A,,Clear,0,2013-09-07 07:53:00
4:53 AM,48.0,46.0,93,30.14,10.0,Calm,Calm,-,N/A,,Clear,0,2013-09-07 08:53:00
5:53 AM,48.9,46.0,90,30.13,10.0,Calm,Calm,-,N/A,,Clear,0,2013-09-07 09:53:00
6:53 AM,46.9,45.0,93,30.13,8.0,Calm,Calm,-,N/A,,Clear,0,2013-09-07 10:53:00
7:53 AM,53.1,48.0,83,30.13,10.0,Calm,Calm,-,N/A,,Clear,0,2013-09-07 11:53:00
8:53 AM,55.9,51.1,84,30.13,10.0,Calm,Calm,-,N/A,,Clear,0,2013-09-07 12:53:00
9:53 AM,62.1,50.0,65,30.12,10.0,Calm,Calm,-,N/A,,Clear,0,2013-09-07 13:53:00
10:53 AM,68.0,51.1,55,30.12,10.0,Calm,Calm,-,N/A,,Clear,0,2013-09-07 14:53:00
11:53 AM,72.0,53.1,51,30.10,10.0,Calm,Calm,-,N/A,,Clear,0,2013-09-07 15:53:00
12:53 PM,75.9,53.1,45,30.06,10.0,Calm,Calm,-,N/A,,Clear,0,2013-09-07 16:53:00
1:53 PM,78.1,54.0,43,30.04,10.0,NW,3.5,-,N/A,,Clear,320,2013-09-07 17:53:00
2:53 PM,80.1,52.0,38,30.01,10.0,Variable,4.6,-,N/A,,Clear,0,2013-09-07 18:53:00
3:53 PM,80.1,48.0,32,29.99,10.0,West,3.5,-,N/A,,Clear,260,2013-09-07 19:53:00
4:53 PM,81.0,44.1,27,29.97,10.0,West,6.9,-,N/A,,Clear,260,2013-09-07 20:53:00
5:53 PM,80.1,44.1,28,29.97,10.0,WSW,5.8,-,N/A,,Clear,250,2013-09-07 21:53:00
6:53 PM,77.0,50.0,39,29.96,10.0,West,6.9,-,N/A,,Clear,260,2013-09-07 22:53:00
7:53 PM,69.1,53.1,57,29.96,10.0,Calm,Calm,-,N/A,,Clear,0,2013-09-07 23:53:00
8:53 PM,66.9,54.0,63,29.96,10.0,SW,3.5,-,N/A,,Clear,220,2013-09-08 00:53:00
9:53 PM,64.0,54.0,70,29.96,10.0,SSW,4.6,-,N/A,,Clear,210,2013-09-08 01:53:00
10:53 PM,64.0,54.0,70,29.96,10.0,WSW,3.5,-,N/A,,Clear,250,2013-09-08 02:53:00
11:53 PM,60.1,54.0,80,29.96,10.0,Calm,Calm,-,N/A,,Clear,0,2013-09-08 03:53:00